createdAt,value
2022-10-01T00:00:56.759Z,10.94
2022-10-01T00:03:25.212Z,10.91
2022-10-01T00:06:13.015Z,11.00
2022-10-01T00:08:41.389Z,11.02
2022-10-01T00:11:09.963Z,11.02
2022-10-01T00:13:36.534Z,10.92
2022-10-01T00:16:08.651Z,10.98
2022-10-01T00:18:36.985Z,11.01
2022-10-01T00:21:10.614Z,10.98
2022-10-01T00:23:38.037Z,10.96
2022-10-01T00:26:17.234Z,10.92
2022-10-01T00:28:46.746Z,11.02
2022-10-01T00:31:15.374Z,10.91
2022-10-01T00:33:42.586Z,10.83
2022-10-01T00:36:10.421Z,10.78
2022-10-01T00:38:38.057Z,10.74
2022-10-01T00:41:05.210Z,10.80
2022-10-01T00:43:35.060Z,10.82
2022-10-01T00:46:15.083Z,10.68
2022-10-01T00:48:52.497Z,10.87
2022-10-01T00:51:20.803Z,10.86
2022-10-01T00:53:47.428Z,10.82
2022-10-01T00:56:13.915Z,10.87
2022-10-01T00:58:40.728Z,10.79
2022-10-01T01:01:07.214Z,10.75
2022-10-01T01:03:34.458Z,10.76
2022-10-01T01:06:00.889Z,10.88
2022-10-01T01:08:29.390Z,10.91
2022-10-01T01:11:13.850Z,10.92
2022-10-01T01:13:57.799Z,10.95
2022-10-01T01:16:47.990Z,10.96
2022-10-01T01:19:34.903Z,10.90
2022-10-01T01:22:05.749Z,10.84
2022-10-01T01:24:45.782Z,10.80
2022-10-01T01:27:26.512Z,10.94
2022-10-01T01:30:10.466Z,10.96
2022-10-01T01:32:49.126Z,10.97
2022-10-01T01:35:28.039Z,10.98
2022-10-01T01:37:58.756Z,10.89
2022-10-01T01:40:26.069Z,11.01
2022-10-01T01:42:55.639Z,11.02
2022-10-01T01:45:25.958Z,11.02
2022-10-01T01:47:56.026Z,10.97
2022-10-01T01:50:25.590Z,10.99
2022-10-01T01:52:53.995Z,10.99
2022-10-01T01:55:26.237Z,10.99
2022-10-01T01:57:54.351Z,10.92
2022-10-01T02:00:22.462Z,11.05
2022-10-01T02:02:53.210Z,10.98
2022-10-01T02:05:25.050Z,11.06
2022-10-01T02:08:12.690Z,11.07
2022-10-01T02:10:54.105Z,11.12
2022-10-01T02:13:43.198Z,11.06
2022-10-01T02:16:19.055Z,11.12
2022-10-01T02:18:57.767Z,11.10
2022-10-01T02:21:40.024Z,11.13
2022-10-01T02:24:33.660Z,11.10
2022-10-01T02:27:03.906Z,11.16
2022-10-01T02:29:30.938Z,11.12
2022-10-01T02:31:57.424Z,11.11
2022-10-01T02:34:29.247Z,11.13
2022-10-01T02:36:58.013Z,11.20
2022-10-01T02:39:27.682Z,11.15
2022-10-01T02:41:55.758Z,11.20
2022-10-01T02:44:37.844Z,11.17
2022-10-01T02:47:18.207Z,11.20
2022-10-01T02:49:47.137Z,11.27
2022-10-01T02:52:19.719Z,11.26
2022-10-01T02:54:58.311Z,11.18
2022-10-01T02:57:27.585Z,11.20
2022-10-01T03:00:15.375Z,11.24
2022-10-01T03:02:42.145Z,11.24
2022-10-01T03:05:09.183Z,11.26
2022-10-01T03:07:36.242Z,11.23
2022-10-01T03:10:04.739Z,11.32
2022-10-01T03:12:31.390Z,11.33
2022-10-01T03:14:57.778Z,11.27
2022-10-01T03:17:24.163Z,11.29
2022-10-01T03:19:50.526Z,11.30
2022-10-01T03:22:19.967Z,11.32
2022-10-01T03:24:46.391Z,11.34
2022-10-01T03:27:12.777Z,11.35
2022-10-01T03:29:39.128Z,11.27
2022-10-01T03:32:05.493Z,11.26
2022-10-01T03:34:32.050Z,11.38
2022-10-01T03:36:58.435Z,11.31
2022-10-01T03:39:24.811Z,11.34
2022-10-01T03:41:51.227Z,11.40
2022-10-01T03:44:17.797Z,11.45
2022-10-01T03:46:44.254Z,11.41
2022-10-01T03:49:11.033Z,11.39
2022-10-01T03:51:38.021Z,11.41
2022-10-01T03:54:06.426Z,11.43
2022-10-01T03:56:33.711Z,11.47
2022-10-01T03:59:00.448Z,11.47
2022-10-01T04:01:27.340Z,11.47
2022-10-01T04:03:54.070Z,11.45
2022-10-01T04:06:20.514Z,11.51
2022-10-01T04:08:47.004Z,11.46
2022-10-01T04:11:13.530Z,11.51
2022-10-01T04:13:40.050Z,11.49
2022-10-01T04:16:07.334Z,11.58
2022-10-01T04:18:34.677Z,11.58
2022-10-01T04:21:01.130Z,11.55
2022-10-01T04:23:27.515Z,11.60
2022-10-01T04:25:53.866Z,11.63
2022-10-01T04:28:20.385Z,11.66
2022-10-01T04:30:46.886Z,11.70
2022-10-01T04:33:16.477Z,11.69
2022-10-01T04:35:44.008Z,11.70
2022-10-01T04:38:16.476Z,11.68
2022-10-01T04:40:43.440Z,11.71
2022-10-01T04:43:11.738Z,11.70
2022-10-01T04:45:38.878Z,11.71
2022-10-01T04:48:05.487Z,11.62
2022-10-01T04:50:32.457Z,11.62
2022-10-01T04:52:59.098Z,11.69
2022-10-01T04:55:25.574Z,11.65
2022-10-01T04:57:52.984Z,11.62
2022-10-01T05:00:22.042Z,11.64
2022-10-01T05:02:49.940Z,11.69
2022-10-01T05:05:17.964Z,11.67
2022-10-01T05:07:44.718Z,11.67
2022-10-01T05:10:20.779Z,11.50
2022-10-01T05:12:48.683Z,11.58
2022-10-01T05:15:16.589Z,11.58
2022-10-01T05:17:43.135Z,11.54
2022-10-01T05:20:16.839Z,11.55
2022-10-01T05:22:44.437Z,11.55
2022-10-01T05:25:10.831Z,11.61
2022-10-01T05:27:37.943Z,11.60
2022-10-01T05:30:05.505Z,11.59
2022-10-01T05:32:31.995Z,11.63
2022-10-01T05:34:58.359Z,11.64
2022-10-01T05:37:24.719Z,11.71
2022-10-01T05:39:52.483Z,11.69
2022-10-01T05:42:18.912Z,11.64
2022-10-01T05:44:49.996Z,11.61
2022-10-01T05:47:17.183Z,11.67
2022-10-01T05:49:44.436Z,11.75
2022-10-01T05:52:12.294Z,11.73
2022-10-01T05:54:38.902Z,11.72
2022-10-01T05:57:06.158Z,11.68
2022-10-01T05:59:32.638Z,11.77
2022-10-01T06:01:59.129Z,11.75
2022-10-01T06:04:25.710Z,11.72
2022-10-01T06:06:54.100Z,11.78
2022-10-01T06:09:20.483Z,11.81
2022-10-01T06:11:46.950Z,11.90
2022-10-01T06:14:13.318Z,11.87
2022-10-01T06:16:39.738Z,11.87
2022-10-01T06:19:06.322Z,11.93
2022-10-01T06:21:33.126Z,11.90
2022-10-01T06:23:59.817Z,11.93
2022-10-01T06:26:26.302Z,11.94
2022-10-01T06:28:52.724Z,11.88
2022-10-01T06:31:19.700Z,12.06
2022-10-01T06:33:46.146Z,12.06
2022-10-01T06:36:12.620Z,12.07
2022-10-01T06:38:39.048Z,11.98
2022-10-01T06:41:05.792Z,11.99
2022-10-01T06:43:33.127Z,11.94
2022-10-01T06:46:04.714Z,11.97
2022-10-01T06:48:31.716Z,11.98
2022-10-01T06:50:59.135Z,12.03
2022-10-01T06:53:28.209Z,11.90
2022-10-01T06:55:55.089Z,12.20
2022-10-01T06:58:23.379Z,12.17
2022-10-01T07:00:50.561Z,12.17
2022-10-01T07:03:21.974Z,12.08
2022-10-01T07:05:49.354Z,12.08
2022-10-01T07:08:16.522Z,12.13
2022-10-01T07:10:44.189Z,12.18
2022-10-01T07:13:16.580Z,12.21
2022-10-01T07:15:43.956Z,12.27
2022-10-01T07:18:11.176Z,12.10
2022-10-01T07:20:42.111Z,12.04
2022-10-01T07:23:12.011Z,11.87
2022-10-01T07:25:39.614Z,12.07
2022-10-01T07:28:08.355Z,11.89
2022-10-01T07:30:35.848Z,11.99
2022-10-01T07:33:02.255Z,12.13
2022-10-01T07:35:29.619Z,12.17
2022-10-01T07:37:56.036Z,12.23
2022-10-01T07:40:22.681Z,12.33
2022-10-01T07:42:56.266Z,12.41
2022-10-01T07:45:23.851Z,12.33
2022-10-01T07:47:59.739Z,12.45
2022-10-01T07:50:28.067Z,12.43
2022-10-01T07:52:56.252Z,12.54
2022-10-01T07:55:28.347Z,12.36
2022-10-01T07:57:57.511Z,12.48
2022-10-01T08:00:25.949Z,12.42
2022-10-01T08:02:55.958Z,12.52
2022-10-01T08:05:25.628Z,12.50
2022-10-01T08:07:52.211Z,12.60
2022-10-01T08:10:20.430Z,12.67
2022-10-01T08:12:46.848Z,12.75
2022-10-01T08:15:16.297Z,12.80
2022-10-01T08:17:43.280Z,12.90
2022-10-01T08:20:11.938Z,12.94
2022-10-01T08:22:42.142Z,12.82
2022-10-01T08:25:09.891Z,12.79
2022-10-01T08:27:36.404Z,12.63
2022-10-01T08:30:02.971Z,12.73
2022-10-01T08:32:30.917Z,13.00
2022-10-01T08:34:58.987Z,13.27
2022-10-01T08:37:27.145Z,13.39
2022-10-01T08:39:54.653Z,13.52
2022-10-01T08:42:47.845Z,13.62
2022-10-01T08:45:36.929Z,13.65
2022-10-01T08:48:06.831Z,13.86
2022-10-01T08:51:04.797Z,14.48
2022-10-01T08:53:40.751Z,14.44
2022-10-01T08:56:21.573Z,14.17
2022-10-01T08:58:53.488Z,14.31
2022-10-01T09:01:20.804Z,14.31
2022-10-01T09:03:47.401Z,14.49
2022-10-01T09:06:40.122Z,15.01
2022-10-01T09:09:34.629Z,15.18
2022-10-01T09:12:01.134Z,15.33
2022-10-01T09:15:00.253Z,15.64
2022-10-01T09:17:48.334Z,15.51
2022-10-01T09:20:27.030Z,15.54
2022-10-01T09:23:12.316Z,15.53
2022-10-01T09:25:39.607Z,15.84
2022-10-01T09:28:34.045Z,16.23
2022-10-01T09:31:06.614Z,16.48
2022-10-01T09:33:47.103Z,16.50
2022-10-01T09:36:26.478Z,16.70
2022-10-01T09:39:05.273Z,16.89
2022-10-01T09:41:31.859Z,17.44
2022-10-01T09:43:58.437Z,18.00
2022-10-01T09:46:26.595Z,17.65
2022-10-01T09:48:59.737Z,16.90
2022-10-01T09:51:41.539Z,16.37
2022-10-01T09:54:36.057Z,16.63
2022-10-01T09:57:26.942Z,16.89
2022-10-01T10:00:02.404Z,17.25
2022-10-01T10:02:33.232Z,17.28
2022-10-01T10:05:09.975Z,16.95
2022-10-01T10:07:42.235Z,16.26
2022-10-01T10:10:26.299Z,16.07
2022-10-01T10:13:02.618Z,16.17
2022-10-01T10:15:32.565Z,16.50
2022-10-01T10:18:13.084Z,16.24
2022-10-01T10:20:41.903Z,15.86
2022-10-01T10:23:19.457Z,15.66
2022-10-01T10:26:07.331Z,15.50
2022-10-01T10:28:44.233Z,16.36
2022-10-01T10:31:16.684Z,16.62
2022-10-01T10:33:57.910Z,16.30
2022-10-01T10:36:30.227Z,16.24
2022-10-01T10:38:58.979Z,16.19
2022-10-01T10:41:27.691Z,16.22
2022-10-01T10:43:58.119Z,16.82
2022-10-01T10:46:32.725Z,16.49
2022-10-01T10:49:15.222Z,16.18
2022-10-01T10:51:49.288Z,16.49
2022-10-01T10:54:24.273Z,16.58
2022-10-01T10:57:03.587Z,16.57
2022-10-01T10:59:32.431Z,16.53
2022-10-01T11:02:00.917Z,16.82
2022-10-01T11:04:39.844Z,17.01
2022-10-01T11:07:07.109Z,16.87
2022-10-01T11:09:57.326Z,16.75
2022-10-01T11:12:33.117Z,16.37
2022-10-01T11:15:21.909Z,16.43
2022-10-01T11:18:04.093Z,16.11
2022-10-01T11:20:33.531Z,16.26
2022-10-01T11:23:36.634Z,16.83
2022-10-01T11:26:16.513Z,17.27
2022-10-01T11:29:03.794Z,17.08
2022-10-01T11:31:40.811Z,16.78
2022-10-01T11:34:25.754Z,16.60
2022-10-01T11:37:16.260Z,16.40
2022-10-01T11:39:44.914Z,16.50
2022-10-01T11:42:20.146Z,16.62
2022-10-01T11:45:04.441Z,16.52
2022-10-01T11:47:36.799Z,16.51
2022-10-01T11:50:18.762Z,16.29
2022-10-01T11:53:16.953Z,16.30
2022-10-01T11:56:24.031Z,16.21
2022-10-01T11:58:56.761Z,16.21
2022-10-01T12:02:01.573Z,16.17
2022-10-01T12:04:35.790Z,16.13
2022-10-01T12:07:20.267Z,16.13
2022-10-01T12:10:03.402Z,16.06
2022-10-01T12:12:38.991Z,16.00
2022-10-01T12:15:23.779Z,15.87
2022-10-01T12:17:56.354Z,15.98
2022-10-01T12:20:29.924Z,16.00
2022-10-01T12:22:59.086Z,15.91
2022-10-01T12:25:54.542Z,15.91
2022-10-01T12:28:39.021Z,16.05
2022-10-01T12:31:20.158Z,15.99
2022-10-01T12:33:59.878Z,16.05
2022-10-01T12:36:36.898Z,15.94
2022-10-01T12:39:16.643Z,15.95
2022-10-01T12:42:01.974Z,15.94
2022-10-01T12:44:50.008Z,15.88
2022-10-01T12:47:42.940Z,15.86
2022-10-01T12:50:25.638Z,15.71
2022-10-01T12:52:54.843Z,15.79
2022-10-01T12:55:42.042Z,15.73
2022-10-01T12:58:40.842Z,15.78
2022-10-01T13:01:34.305Z,15.81
2022-10-01T13:04:20.908Z,15.79
2022-10-01T13:07:08.603Z,15.85
2022-10-01T13:09:48.971Z,15.89
2022-10-01T13:12:34.243Z,15.89
2022-10-01T13:15:00.636Z,15.83
2022-10-01T13:18:09.266Z,15.75
2022-10-01T13:20:44.114Z,15.72
2022-10-01T13:23:27.342Z,15.73
2022-10-01T13:26:29.079Z,15.75
2022-10-01T13:29:23.323Z,15.81
2022-10-01T13:31:57.336Z,15.89
2022-10-01T13:34:46.300Z,15.98
2022-10-01T13:37:14.596Z,15.97
2022-10-01T13:39:43.322Z,15.99
2022-10-01T13:42:27.483Z,16.02
2022-10-01T13:45:10.992Z,15.97
2022-10-01T13:47:41.204Z,15.93
2022-10-01T13:50:25.144Z,15.90
2022-10-01T13:52:53.121Z,15.91
2022-10-01T13:55:27.559Z,15.87
2022-10-01T13:58:31.771Z,15.92
2022-10-01T14:01:01.370Z,16.01
2022-10-01T14:03:42.255Z,16.05
2022-10-01T14:06:18.278Z,16.04
2022-10-01T14:08:54.266Z,15.85
2022-10-01T14:11:45.851Z,15.82
2022-10-01T14:14:38.689Z,15.89
2022-10-01T14:17:08.511Z,15.86
2022-10-01T14:19:35.271Z,15.79
2022-10-01T14:22:04.425Z,15.74
2022-10-01T14:24:55.512Z,15.66
2022-10-01T14:28:19.503Z,15.68
2022-10-01T14:30:56.001Z,15.65
2022-10-01T14:33:47.179Z,15.63
2022-10-01T14:36:29.543Z,15.58
2022-10-01T14:39:19.103Z,15.51
2022-10-01T14:41:48.029Z,15.61
2022-10-01T14:44:29.953Z,15.55
2022-10-01T14:46:58.908Z,15.64
2022-10-01T14:49:29.226Z,15.63
2022-10-01T14:52:05.524Z,15.61
2022-10-01T14:54:42.732Z,15.39
2022-10-01T14:57:12.827Z,15.55
2022-10-01T14:59:40.634Z,15.52
2022-10-01T15:02:19.393Z,15.43
2022-10-01T15:04:51.200Z,15.52
2022-10-01T15:07:18.029Z,15.58
2022-10-01T15:09:46.964Z,15.62
2022-10-01T15:12:16.073Z,15.62
2022-10-01T15:14:43.725Z,15.63
2022-10-01T15:17:21.085Z,15.56
2022-10-01T15:19:52.444Z,15.50
2022-10-01T15:22:26.981Z,15.52
2022-10-01T15:24:57.755Z,15.50
2022-10-01T15:27:24.946Z,15.49
2022-10-01T15:29:56.653Z,15.31
2022-10-01T15:32:25.542Z,15.33
2022-10-01T15:34:55.986Z,15.38
2022-10-01T15:37:46.805Z,15.33
2022-10-01T15:40:29.684Z,15.18
2022-10-01T15:43:08.028Z,15.28
2022-10-01T15:45:35.730Z,15.24
2022-10-01T15:48:02.102Z,15.21
2022-10-01T15:50:34.458Z,15.18
2022-10-01T15:53:10.237Z,15.01
2022-10-01T15:55:46.269Z,15.08
2022-10-01T15:58:15.676Z,15.10
2022-10-01T16:00:48.698Z,15.10
2022-10-01T16:03:27.335Z,15.10
2022-10-01T16:05:55.138Z,15.07
2022-10-01T16:08:26.037Z,15.07
2022-10-01T16:11:14.198Z,15.10
2022-10-01T16:13:44.862Z,15.09
2022-10-01T16:16:14.389Z,15.06
2022-10-01T16:18:42.720Z,14.98
2022-10-01T16:21:11.112Z,14.99
2022-10-01T16:23:40.305Z,14.98
2022-10-01T16:26:27.055Z,14.98
2022-10-01T16:28:56.432Z,14.97
2022-10-01T16:31:26.898Z,14.95
2022-10-01T16:33:53.347Z,14.93
2022-10-01T16:36:21.690Z,15.02
2022-10-01T16:38:48.220Z,15.01
2022-10-01T16:41:21.280Z,15.01
2022-10-01T16:43:49.666Z,14.98
2022-10-01T16:46:16.217Z,14.99
2022-10-01T16:48:42.671Z,14.96
2022-10-01T16:51:09.207Z,14.92
2022-10-01T16:53:35.672Z,14.94
2022-10-01T16:56:02.048Z,14.94
2022-10-01T16:58:28.598Z,14.89
2022-10-01T17:00:55.043Z,14.90
2022-10-01T17:03:22.462Z,14.90
2022-10-01T17:05:49.930Z,14.91
2022-10-01T17:08:17.081Z,14.89
2022-10-01T17:10:51.246Z,14.89
2022-10-01T17:13:17.751Z,14.85
2022-10-01T17:15:44.180Z,14.86
2022-10-01T17:18:10.600Z,14.82
2022-10-01T17:20:40.953Z,14.82
2022-10-01T17:23:08.084Z,14.80
2022-10-01T17:25:36.812Z,14.76
2022-10-01T17:28:06.391Z,14.75
2022-10-01T17:30:33.172Z,14.73
2022-10-01T17:33:00.825Z,14.76
2022-10-01T17:35:29.317Z,14.75
2022-10-01T17:37:56.105Z,14.71
2022-10-01T17:40:22.491Z,14.63
2022-10-01T17:42:49.145Z,14.63
2022-10-01T17:45:16.001Z,14.57
2022-10-01T17:47:44.493Z,14.39
2022-10-01T17:50:11.299Z,14.56
2022-10-01T17:52:37.947Z,14.55
2022-10-01T17:55:05.168Z,14.50
2022-10-01T17:57:31.843Z,14.47
2022-10-01T17:59:58.247Z,14.48
2022-10-01T18:02:40.901Z,14.48
2022-10-01T18:05:09.476Z,14.52
2022-10-01T18:07:39.331Z,14.46
2022-10-01T18:10:08.291Z,14.44
2022-10-01T18:12:34.995Z,14.41
2022-10-01T18:15:01.866Z,14.36
2022-10-01T18:17:28.338Z,14.34
2022-10-01T18:19:54.802Z,14.33
2022-10-01T18:22:22.409Z,14.29
2022-10-01T18:24:48.767Z,14.17
2022-10-01T18:27:15.325Z,14.25
2022-10-01T18:29:41.909Z,14.27
2022-10-01T18:32:19.216Z,14.31
2022-10-01T18:34:57.790Z,14.31
2022-10-01T18:37:45.584Z,14.30
2022-10-01T18:40:36.684Z,14.25
2022-10-01T18:43:15.876Z,14.27
2022-10-01T18:46:11.456Z,14.38
2022-10-01T18:49:10.310Z,14.42
2022-10-01T18:52:05.247Z,14.50
2022-10-01T18:54:51.455Z,14.55
2022-10-01T18:57:52.139Z,14.59
2022-10-01T19:00:23.264Z,14.58
2022-10-01T19:03:05.098Z,14.45
2022-10-01T19:05:49.797Z,14.57
2022-10-01T19:08:49.337Z,14.55
2022-10-01T19:11:37.459Z,14.55
2022-10-01T19:14:19.043Z,14.53
2022-10-01T19:17:07.765Z,14.53
2022-10-01T19:20:01.990Z,14.38
2022-10-01T19:23:14.227Z,14.46
2022-10-01T19:25:50.454Z,14.48
2022-10-01T19:28:46.907Z,14.48
2022-10-01T19:31:18.546Z,14.47
2022-10-01T19:33:51.991Z,14.37
2022-10-01T19:36:26.002Z,14.44
2022-10-01T19:38:57.381Z,14.44
2022-10-01T19:41:36.307Z,14.47
2022-10-01T19:44:09.778Z,14.46
2022-10-01T19:46:40.947Z,14.43
2022-10-01T19:49:08.519Z,14.44
2022-10-01T19:51:39.369Z,14.35
2022-10-01T19:54:13.824Z,14.39
2022-10-01T19:56:41.322Z,14.44
2022-10-01T19:59:12.526Z,14.44
2022-10-01T20:01:46.280Z,14.50
2022-10-01T20:04:22.477Z,14.51
2022-10-01T20:06:48.939Z,14.54
2022-10-01T20:09:26.908Z,14.55
2022-10-01T20:11:56.251Z,14.53
2022-10-01T20:14:48.314Z,14.50
2022-10-01T20:17:29.555Z,14.49
2022-10-01T20:20:13.469Z,14.27
2022-10-01T20:23:11.056Z,14.43
2022-10-01T20:25:50.754Z,14.45
2022-10-01T20:28:40.771Z,14.42
2022-10-01T20:31:23.109Z,14.41
2022-10-01T20:34:17.773Z,14.41
2022-10-01T20:36:53.601Z,14.41
2022-10-01T20:39:32.240Z,14.26
2022-10-01T20:41:59.975Z,14.26
2022-10-01T20:44:36.025Z,14.39
2022-10-01T20:47:07.257Z,14.29
2022-10-01T20:49:43.496Z,14.34
2022-10-01T20:52:25.146Z,14.33
2022-10-01T20:54:53.087Z,14.31
2022-10-01T20:57:44.435Z,14.11
2022-10-01T21:00:19.516Z,14.28
2022-10-01T21:02:48.968Z,14.30
2022-10-01T21:05:29.245Z,14.25
2022-10-01T21:08:01.350Z,14.25
2022-10-01T21:10:42.478Z,14.24
2022-10-01T21:13:19.147Z,14.24
2022-10-01T21:15:59.063Z,14.26
2022-10-01T21:19:17.387Z,14.27
2022-10-01T21:21:46.515Z,14.29
2022-10-01T21:24:30.856Z,14.29
2022-10-01T21:27:15.172Z,14.19
2022-10-01T21:29:50.317Z,14.29
2022-10-01T21:32:38.408Z,14.31
2022-10-01T21:35:24.023Z,14.34
2022-10-01T21:37:59.249Z,14.30
2022-10-01T21:41:20.116Z,14.33
2022-10-01T21:44:10.101Z,14.35
2022-10-01T21:46:47.351Z,14.21
2022-10-01T21:49:32.350Z,14.30
2022-10-01T21:52:14.839Z,14.30
2022-10-01T21:54:56.707Z,14.31
2022-10-01T21:57:48.188Z,14.31
2022-10-01T22:00:26.465Z,14.26
2022-10-01T22:03:07.831Z,14.24
2022-10-01T22:05:53.615Z,14.21
2022-10-01T22:08:46.099Z,14.14
2022-10-01T22:11:18.281Z,14.12
2022-10-01T22:13:54.804Z,14.12
2022-10-01T22:16:26.042Z,14.11
2022-10-01T22:19:06.580Z,14.09
2022-10-01T22:21:50.745Z,14.10
2022-10-01T22:24:31.041Z,14.10
2022-10-01T22:27:27.688Z,14.09
2022-10-01T22:30:00.367Z,14.02
2022-10-01T22:32:33.162Z,14.07
2022-10-01T22:35:07.443Z,13.88
2022-10-01T22:37:40.226Z,14.08
2022-10-01T22:40:43.516Z,14.05
2022-10-01T22:43:12.340Z,14.04
2022-10-01T22:45:54.706Z,14.05
2022-10-01T22:48:59.432Z,14.06
2022-10-01T22:51:25.784Z,14.06
2022-10-01T22:54:07.259Z,14.03
2022-10-01T22:56:43.999Z,13.93
2022-10-01T22:59:35.456Z,13.98
2022-10-01T23:02:12.819Z,13.94
2022-10-01T23:04:51.480Z,13.90
2022-10-01T23:07:29.029Z,13.88
2022-10-01T23:10:13.785Z,13.93
2022-10-01T23:12:49.284Z,13.92
2022-10-01T23:15:15.904Z,13.90
2022-10-01T23:18:20.024Z,13.92
2022-10-01T23:21:04.820Z,14.00
2022-10-01T23:23:33.119Z,14.05
2022-10-01T23:26:13.487Z,14.01
2022-10-01T23:28:48.862Z,14.07
2022-10-01T23:31:45.177Z,14.06
2022-10-01T23:34:39.003Z,14.03
2022-10-01T23:37:43.911Z,14.07
2022-10-01T23:40:17.945Z,14.04
2022-10-01T23:43:03.435Z,14.07
2022-10-01T23:45:52.694Z,14.04
2022-10-01T23:48:38.945Z,14.10
2022-10-01T23:51:11.190Z,14.13
2022-10-01T23:53:44.283Z,14.16
2022-10-01T23:56:39.602Z,14.05
2022-10-01T23:59:08.680Z,14.15
